VOZ454 YPDN-YBBN
Flight info
| Callsign | VOZ454 |
|---|---|
| Flight time | N/A |
| Altitude | 37000 |
| Route | RUPEG Y25 OPEKO A464 NIVED/N0448F390 A464 UNVAT V327 IGUPI Y340 LAMUG Y177 SMOKA |
| Aircraft | B738/M-SAE3DGHIM1RWZ/LB1 |
Departure
| Time | 2026-05-08 05:28 |
|---|---|
| Airport | Darwin International Airport / RAAF Darwin (YPDN) |
Arrival
| Time | N/A |
|---|---|
| Airport | Brisbane International Airport (YBBN) |
| Time | Latitude | Longitude | Altitude | Speed | Heading |
|---|---|---|---|---|---|
| 2026-05-08 05:03 | -12.40861 | 130.87685 | 89 ft | 0 kts | 19° |
| 2026-05-08 05:19 | -12.40866 | 130.87684 | 89 ft | 2 kts | 18° |
| 2026-05-08 05:20 | -12.40885 | 130.87678 | 90 ft | 3 kts | 11° |
| 2026-05-08 05:20 | -12.40905 | 130.87676 | 90 ft | 3 kts | 0° |
| 2026-05-08 05:20 | -12.40925 | 130.87677 | 91 ft | 3 kts | 345° |
| 2026-05-08 05:20 | -12.40943 | 130.87684 | 92 ft | 3 kts | 318° |
| 2026-05-08 05:21 | -12.40952 | 130.87696 | 90 ft | 2 kts | 282° |
| 2026-05-08 05:21 | -12.40953 | 130.87698 | 90 ft | 1 kts | 280° |
| 2026-05-08 05:22 | -12.40952 | 130.87698 | 90 ft | 1 kts | 280° |
| 2026-05-08 05:23 | -12.40953 | 130.87679 | 90 ft | 6 kts | 265° |
| 2026-05-08 05:23 | -12.40977 | 130.87620 | 90 ft | 12 kts | 225° |
| 2026-05-08 05:23 | -12.41049 | 130.87584 | 89 ft | 12 kts | 202° |
| 2026-05-08 05:23 | -12.41130 | 130.87551 | 92 ft | 15 kts | 201° |
| 2026-05-08 05:24 | -12.41196 | 130.87529 | 91 ft | 15 kts | 197° |
| 2026-05-08 05:24 | -12.41322 | 130.87488 | 91 ft | 14 kts | 199° |
| 2026-05-08 05:24 | -12.41383 | 130.87466 | 92 ft | 15 kts | 200° |
| 2026-05-08 05:24 | -12.41479 | 130.87396 | 91 ft | 20 kts | 241° |
| 2026-05-08 05:25 | -12.41472 | 130.87263 | 93 ft | 19 kts | 290° |
| 2026-05-08 05:25 | -12.41429 | 130.87136 | 92 ft | 19 kts | 288° |
| 2026-05-08 05:25 | -12.41389 | 130.87013 | 89 ft | 18 kts | 290° |
| 2026-05-08 05:25 | -12.41346 | 130.86896 | 90 ft | 17 kts | 290° |
| 2026-05-08 05:26 | -12.41304 | 130.86782 | 93 ft | 17 kts | 290° |
| 2026-05-08 05:26 | -12.41271 | 130.86672 | 92 ft | 16 kts | 292° |
| 2026-05-08 05:26 | -12.41235 | 130.86566 | 91 ft | 15 kts | 288° |
| 2026-05-08 05:26 | -12.41171 | 130.86485 | 89 ft | 15 kts | 337° |
| 2026-05-08 05:27 | -12.41073 | 130.86485 | 89 ft | 14 kts | 20° |
| 2026-05-08 05:27 | -12.40983 | 130.86518 | 89 ft | 13 kts | 20° |
| 2026-05-08 05:27 | -12.40969 | 130.86620 | 89 ft | 34 kts | 109° |
| 2026-05-08 05:27 | -12.41126 | 130.87089 | 90 ft | 103 kts | 109° |
| 2026-05-08 05:28 | -12.41425 | 130.87971 | 116 ft | 155 kts | 109° |
| 2026-05-08 05:28 | -12.41811 | 130.89045 | 747 ft | 159 kts | 109° |
| 2026-05-08 05:28 | -12.42182 | 130.90128 | 1479 ft | 166 kts | 108° |
| 2026-05-08 05:28 | -12.42582 | 130.91345 | 1751 ft | 194 kts | 108° |
| 2026-05-08 05:29 | -12.43036 | 130.92721 | 1944 ft | 215 kts | 108° |
| 2026-05-08 05:29 | -12.43534 | 130.94228 | 2183 ft | 235 kts | 109° |
| 2026-05-08 05:29 | -12.44084 | 130.95882 | 2410 ft | 257 kts | 109° |
| 2026-05-08 05:29 | -12.44689 | 130.97699 | 2628 ft | 281 kts | 108° |
| 2026-05-08 05:30 | -12.45328 | 130.99618 | 3213 ft | 288 kts | 108° |
| 2026-05-08 05:30 | -12.45985 | 131.01592 | 3824 ft | 296 kts | 108° |
| 2026-05-08 05:30 | -12.46652 | 131.03596 | 4538 ft | 299 kts | 107° |
| 2026-05-08 05:30 | -12.47182 | 131.05662 | 5278 ft | 300 kts | 101° |
| 2026-05-08 05:31 | -12.47540 | 131.07770 | 6015 ft | 303 kts | 99° |
| 2026-05-08 05:31 | -12.47860 | 131.09915 | 6660 ft | 306 kts | 99° |
| 2026-05-08 05:31 | -12.48174 | 131.12062 | 7221 ft | 312 kts | 100° |
| 2026-05-08 05:31 | -12.48509 | 131.14318 | 7705 ft | 321 kts | 100° |
| 2026-05-08 05:32 | -12.48867 | 131.16596 | 8225 ft | 328 kts | 104° |
| 2026-05-08 05:32 | -12.49765 | 131.18731 | 8746 ft | 331 kts | 128° |
| 2026-05-08 05:32 | -12.51447 | 131.20353 | 9292 ft | 334 kts | 143° |
| 2026-05-08 05:32 | -12.53235 | 131.21900 | 9900 ft | 338 kts | 141° |
| 2026-05-08 05:33 | -12.55007 | 131.23507 | 10437 ft | 343 kts | 140° |
| 2026-05-08 05:33 | -12.56797 | 131.25145 | 10971 ft | 347 kts | 140° |
| 2026-05-08 05:33 | -12.58608 | 131.26804 | 11505 ft | 352 kts | 140° |
| 2026-05-08 05:33 | -12.60474 | 131.28508 | 12085 ft | 356 kts | 140° |
| 2026-05-08 05:34 | -12.62332 | 131.30199 | 12666 ft | 360 kts | 140° |
| 2026-05-08 05:34 | -12.64212 | 131.31907 | 13282 ft | 363 kts | 140° |
| 2026-05-08 05:34 | -12.66111 | 131.33631 | 13832 ft | 368 kts | 140° |
| 2026-05-08 05:34 | -12.67716 | 131.35085 | 14231 ft | 372 kts | 140° |
| 2026-05-08 05:35 | -12.69666 | 131.36852 | 14774 ft | 376 kts | 140° |
| 2026-05-08 05:35 | -12.71607 | 131.38610 | 15290 ft | 380 kts | 140° |
| 2026-05-08 05:35 | -12.73605 | 131.40419 | 15802 ft | 385 kts | 140° |
| 2026-05-08 05:35 | -12.75621 | 131.42246 | 16311 ft | 389 kts | 140° |
| 2026-05-08 05:36 | -12.77668 | 131.44100 | 16841 ft | 394 kts | 140° |
| 2026-05-08 05:36 | -12.79731 | 131.45969 | 17325 ft | 399 kts | 140° |
| 2026-05-08 05:36 | -12.81818 | 131.47861 | 17825 ft | 403 kts | 140° |
| 2026-05-08 05:36 | -12.83928 | 131.49774 | 18295 ft | 407 kts | 140° |
| 2026-05-08 05:37 | -12.86062 | 131.51709 | 18760 ft | 410 kts | 140° |
| 2026-05-08 05:37 | -12.88201 | 131.53649 | 19270 ft | 411 kts | 140° |
| 2026-05-08 05:37 | -12.90347 | 131.55596 | 19769 ft | 412 kts | 140° |